createdAt,value
2023-04-19T00:00:09.988Z,10.80
2023-04-19T00:03:00.594Z,10.70
2023-04-19T00:05:35.504Z,11.60
2023-04-19T00:08:09.102Z,11.90
2023-04-19T00:10:49.801Z,11.20
2023-04-19T00:13:19.394Z,10.80
2023-04-19T00:15:54.546Z,10.30
2023-04-19T00:18:23.576Z,10.60
2023-04-19T00:20:54.899Z,10.40
2023-04-19T00:23:26.789Z,9.70
2023-04-19T00:26:03.928Z,10.40
2023-04-19T00:28:34.645Z,10.80
2023-04-19T00:31:06.708Z,10.50
2023-04-19T00:33:53.742Z,9.90
2023-04-19T00:36:40.715Z,10.50
2023-04-19T00:39:09.435Z,10.30
2023-04-19T00:41:42.864Z,9.60
2023-04-19T00:44:23.886Z,10.70
2023-04-19T00:47:00.684Z,9.70
2023-04-19T00:49:32.626Z,10.00
2023-04-19T00:52:01.396Z,10.20
2023-04-19T00:54:31.078Z,9.90
2023-04-19T00:57:00.992Z,9.30
2023-04-19T00:59:31.586Z,11.70
2023-04-19T01:02:01.140Z,9.40
2023-04-19T01:04:31.967Z,9.50
2023-04-19T01:07:03.099Z,9.30
2023-04-19T01:09:32.511Z,9.00
2023-04-19T01:12:03.252Z,8.70
2023-04-19T01:14:32.537Z,9.10
2023-04-19T01:17:03.611Z,8.30
2023-04-19T01:19:36.738Z,8.10
2023-04-19T01:22:06.394Z,8.20
2023-04-19T01:24:35.906Z,9.10
2023-04-19T01:27:06.045Z,8.30
2023-04-19T01:29:40.623Z,7.60
2023-04-19T01:32:12.190Z,9.00
2023-04-19T01:34:42.677Z,7.90
2023-04-19T01:37:13.972Z,8.30
2023-04-19T01:39:43.659Z,8.50
2023-04-19T01:42:12.486Z,8.20
2023-04-19T01:44:43.568Z,10.70
2023-04-19T01:47:16.235Z,8.50
2023-04-19T01:49:45.810Z,8.70
2023-04-19T01:52:17.117Z,7.60
2023-04-19T01:54:55.952Z,8.20
2023-04-19T01:57:25.058Z,7.50
2023-04-19T01:59:54.242Z,7.80
2023-04-19T02:02:25.850Z,8.50
2023-04-19T02:04:59.132Z,7.10
2023-04-19T02:07:34.490Z,7.20
2023-04-19T02:10:08.822Z,6.90
2023-04-19T02:12:37.964Z,6.70
2023-04-19T02:15:08.001Z,5.70
2023-04-19T02:17:39.543Z,6.10
2023-04-19T02:20:09.143Z,6.10
2023-04-19T02:22:38.000Z,6.30
2023-04-19T02:25:10.260Z,5.90
2023-04-19T02:27:39.158Z,6.30
2023-04-19T02:30:09.469Z,6.20
2023-04-19T02:32:38.567Z,6.30
2023-04-19T02:35:08.676Z,6.60
2023-04-19T02:37:37.681Z,6.70
2023-04-19T02:40:10.509Z,6.10
2023-04-19T02:42:39.185Z,6.50
2023-04-19T02:45:11.594Z,6.50
2023-04-19T02:47:40.544Z,5.80
2023-04-19T02:50:10.108Z,6.70
2023-04-19T02:52:43.916Z,6.50
2023-04-19T02:55:15.990Z,6.50
2023-04-19T02:57:46.168Z,7.30
2023-04-19T03:00:15.701Z,6.80
2023-04-19T03:02:50.441Z,7.10
2023-04-19T03:05:19.583Z,7.60
2023-04-19T03:07:48.971Z,6.60
2023-04-19T03:10:20.941Z,7.10
2023-04-19T03:12:49.801Z,7.40
2023-04-19T03:15:20.541Z,7.80
2023-04-19T03:17:50.182Z,6.50
2023-04-19T03:20:20.491Z,7.10
2023-04-19T03:22:49.641Z,7.40
2023-04-19T03:25:19.388Z,8.50
2023-04-19T03:27:53.703Z,8.60
2023-04-19T03:30:33.109Z,8.20
2023-04-19T03:33:06.376Z,8.30
2023-04-19T03:35:36.916Z,8.20
2023-04-19T03:38:14.002Z,39.10
2023-04-19T03:40:43.528Z,11.50
2023-04-19T03:43:15.488Z,8.60
2023-04-19T03:45:56.789Z,9.30
2023-04-19T03:48:31.546Z,9.40
2023-04-19T03:51:02.185Z,11.60
2023-04-19T03:53:31.672Z,11.80
2023-04-19T03:56:07.397Z,10.30
2023-04-19T03:58:43.434Z,10.10
2023-04-19T04:01:26.486Z,9.40
2023-04-19T04:04:09.488Z,8.60
2023-04-19T04:07:04.354Z,7.40
2023-04-19T04:12:29.344Z,7.10
2023-04-19T04:17:34.630Z,8.30
2023-04-19T04:20:05.376Z,7.20
2023-04-19T04:22:40.004Z,7.70
2023-04-19T04:25:15.498Z,7.20
2023-04-19T04:27:45.352Z,6.80
2023-04-19T04:30:18.250Z,8.30
2023-04-19T04:32:47.446Z,8.20
2023-04-19T04:35:17.215Z,9.00
2023-04-19T04:37:57.812Z,8.70
2023-04-19T04:40:30.723Z,9.70
2023-04-19T04:43:04.807Z,11.10
2023-04-19T04:45:37.557Z,14.10
2023-04-19T04:48:09.021Z,16.30
2023-04-19T04:50:46.670Z,14.50
2023-04-19T04:53:15.737Z,12.20
2023-04-19T04:55:51.412Z,11.00
2023-04-19T04:58:25.466Z,10.00
2023-04-19T05:01:09.711Z,9.80
2023-04-19T05:03:42.595Z,8.40
2023-04-19T05:06:15.081Z,11.40
2023-04-19T05:08:48.690Z,7.60
2023-04-19T05:11:44.402Z,7.70
2023-04-19T05:14:15.805Z,8.50
2023-04-19T05:16:47.853Z,9.00
2023-04-19T05:19:20.207Z,8.20
2023-04-19T05:21:54.680Z,10.10
2023-04-19T05:24:27.564Z,9.80
2023-04-19T05:27:03.572Z,8.60
2023-04-19T05:29:37.419Z,9.20
2023-04-19T05:32:11.287Z,9.90
2023-04-19T05:34:48.018Z,8.00
2023-04-19T05:37:24.411Z,9.20
2023-04-19T05:39:57.943Z,10.20
2023-04-19T05:42:40.463Z,11.70
2023-04-19T05:45:45.646Z,10.00
2023-04-19T05:48:20.306Z,10.30
2023-04-19T05:51:22.117Z,9.50
2023-04-19T05:54:12.321Z,8.90
2023-04-19T05:56:49.412Z,10.80
2023-04-19T05:59:26.607Z,12.70
2023-04-19T06:02:07.709Z,11.90
2023-04-19T06:04:40.737Z,11.50
2023-04-19T06:07:33.935Z,11.90
2023-04-19T06:10:15.717Z,11.10
2023-04-19T06:12:46.796Z,10.80
2023-04-19T06:15:24.164Z,13.20
2023-04-19T06:18:05.300Z,12.90
2023-04-19T06:20:43.261Z,13.20
2023-04-19T06:23:23.347Z,14.20
2023-04-19T06:25:55.964Z,12.20
2023-04-19T06:28:29.354Z,12.60
2023-04-19T06:31:04.782Z,11.20
2023-04-19T06:33:34.990Z,11.40
2023-04-19T06:36:07.191Z,11.50
2023-04-19T06:38:44.295Z,10.60
2023-04-19T06:41:22.960Z,10.60
2023-04-19T06:43:55.513Z,10.30
2023-04-19T06:46:24.649Z,12.90
2023-04-19T06:48:58.641Z,13.00
2023-04-19T06:54:00.152Z,12.80
2023-04-19T06:56:45.321Z,12.50
2023-04-19T06:59:19.309Z,20.80
2023-04-19T07:01:57.935Z,10.70
2023-04-19T07:04:34.587Z,11.60
2023-04-19T07:07:05.530Z,10.60
2023-04-19T07:09:36.336Z,10.90
2023-04-19T07:12:12.526Z,10.10
2023-04-19T07:14:44.506Z,10.90
2023-04-19T07:17:18.372Z,70.40
2023-04-19T07:19:52.481Z,11.20
2023-04-19T07:22:35.470Z,11.30
2023-04-19T07:25:05.488Z,10.00
2023-04-19T07:27:37.636Z,11.10
2023-04-19T07:30:07.554Z,11.30
2023-04-19T07:32:42.061Z,11.50
2023-04-19T07:35:28.240Z,10.40
2023-04-19T07:38:04.110Z,10.40
2023-04-19T07:40:38.367Z,14.00
2023-04-19T07:43:17.069Z,14.20
2023-04-19T07:45:55.527Z,11.50
2023-04-19T07:48:38.378Z,15.60
2023-04-19T07:51:13.780Z,15.30
2023-04-19T07:53:46.614Z,11.20
2023-04-19T07:56:28.970Z,11.30
2023-04-19T08:01:45.577Z,11.00
2023-04-19T08:04:22.923Z,9.70
2023-04-19T08:07:07.500Z,9.70
2023-04-19T08:09:55.988Z,10.80
2023-04-19T08:12:38.320Z,15.10
2023-04-19T08:15:36.140Z,9.70
2023-04-19T08:17:59.006Z,12.10
2023-04-19T08:20:42.241Z,11.00
2023-04-19T08:23:24.531Z,11.00
2023-04-19T08:26:00.203Z,10.90
2023-04-19T08:28:36.054Z,11.80
2023-04-19T08:31:11.094Z,9.80
2023-04-19T08:33:45.723Z,9.70
2023-04-19T08:36:32.410Z,10.90
2023-04-19T08:39:29.123Z,11.20
2023-04-19T08:42:24.553Z,11.70
2023-04-19T08:45:27.121Z,9.10
2023-04-19T08:48:03.110Z,9.70
2023-04-19T08:50:48.419Z,10.40
2023-04-19T08:53:25.459Z,11.20
2023-04-19T08:59:04.061Z,13.70
2023-04-19T09:01:54.088Z,11.40
2023-04-19T09:04:36.489Z,12.10
2023-04-19T09:07:10.596Z,11.20
2023-04-19T09:10:13.647Z,12.10
2023-04-19T09:13:04.926Z,12.70
2023-04-19T09:15:40.895Z,12.30
2023-04-19T09:18:15.660Z,11.90
2023-04-19T09:20:48.403Z,13.90
2023-04-19T09:23:37.362Z,12.20
2023-04-19T09:26:23.257Z,10.30
2023-04-19T09:29:06.459Z,9.40
2023-04-19T09:31:51.442Z,11.00
2023-04-19T09:34:23.826Z,10.80
2023-04-19T09:37:17.725Z,12.20
2023-04-19T09:40:32.066Z,10.90
2023-04-19T09:45:51.378Z,10.50
2023-04-19T09:48:27.424Z,11.80
2023-04-19T09:51:05.812Z,10.90
2023-04-19T09:53:46.111Z,11.20
2023-04-19T09:56:26.854Z,9.90
2023-04-19T09:59:21.457Z,10.20
2023-04-19T10:01:57.821Z,13.00
2023-04-19T10:04:44.022Z,12.50
2023-04-19T10:08:02.133Z,13.60
2023-04-19T10:10:41.890Z,16.90
2023-04-19T10:13:26.670Z,12.90
2023-04-19T10:16:01.782Z,13.50
2023-04-19T10:19:11.092Z,12.40
2023-04-19T10:21:47.116Z,11.50
2023-04-19T10:24:21.129Z,12.80
2023-04-19T10:27:15.210Z,12.80
2023-04-19T10:30:28.758Z,14.30
2023-04-19T10:33:42.066Z,11.40
2023-04-19T10:36:20.354Z,13.60
2023-04-19T10:38:56.620Z,12.80
2023-04-19T10:41:59.082Z,11.30
2023-04-19T10:44:32.016Z,11.50
2023-04-19T10:52:12.857Z,13.70
2023-04-19T10:55:19.127Z,12.10
2023-04-19T10:58:14.257Z,12.90
2023-04-19T11:05:11.153Z,15.30
2023-04-19T11:07:57.344Z,16.50
2023-04-19T11:11:30.163Z,14.10
2023-04-19T11:14:12.019Z,10.60
2023-04-19T11:17:08.005Z,10.90
2023-04-19T11:23:01.439Z,10.20
2023-04-19T11:25:38.507Z,12.10
2023-04-19T11:28:33.145Z,13.40
2023-04-19T11:31:04.249Z,18.00
2023-04-19T11:33:36.944Z,16.50
2023-04-19T11:36:58.279Z,12.90
2023-04-19T11:39:50.212Z,16.20
2023-04-19T11:42:32.878Z,17.50
2023-04-19T11:45:31.254Z,13.30
2023-04-19T11:48:16.839Z,21.40
2023-04-19T11:50:49.046Z,12.30
2023-04-19T11:53:46.201Z,13.50
2023-04-19T11:56:19.138Z,16.60
2023-04-19T11:58:53.080Z,16.90
2023-04-19T12:01:25.059Z,12.60
2023-04-19T12:06:31.555Z,14.30
2023-04-19T12:09:03.688Z,14.80
2023-04-19T12:11:50.790Z,14.40
2023-04-19T12:14:31.245Z,14.10
2023-04-19T12:17:09.817Z,17.80
2023-04-19T12:19:54.000Z,17.50
2023-04-19T12:24:59.007Z,18.60
2023-04-19T12:27:28.151Z,17.80
2023-04-19T12:30:04.336Z,15.70
2023-04-19T12:32:38.216Z,16.70
2023-04-19T12:35:22.307Z,15.80
2023-04-19T12:38:01.921Z,17.20
2023-04-19T12:40:38.839Z,15.30
2023-04-19T12:43:10.970Z,17.50
2023-04-19T12:45:45.339Z,17.00
2023-04-19T12:48:25.335Z,17.50
2023-04-19T12:51:01.092Z,17.70
2023-04-19T12:53:37.622Z,15.30
2023-04-19T12:56:18.762Z,15.50
2023-04-19T12:58:53.926Z,16.20
2023-04-19T13:01:29.963Z,15.50
2023-04-19T13:04:28.608Z,15.70
2023-04-19T13:07:10.154Z,15.20
2023-04-19T13:09:46.303Z,14.80
2023-04-19T13:12:34.054Z,15.40
2023-04-19T13:15:12.261Z,16.90
2023-04-19T13:17:46.917Z,16.30
2023-04-19T13:20:29.031Z,16.30
2023-04-19T13:23:08.370Z,15.40
2023-04-19T13:25:40.784Z,15.90
2023-04-19T13:28:21.312Z,16.80
2023-04-19T13:30:56.758Z,17.00
2023-04-19T13:33:40.596Z,17.20
2023-04-19T13:36:30.391Z,18.00
2023-04-19T13:39:12.290Z,15.10
2023-04-19T13:43:01.020Z,16.20
2023-04-19T13:45:48.180Z,15.40
2023-04-19T13:48:31.848Z,17.40
2023-04-19T13:51:42.767Z,17.30
2023-04-19T13:54:22.986Z,17.80
2023-04-19T13:57:29.512Z,19.40
2023-04-19T14:00:37.854Z,15.20
2023-04-19T14:03:29.368Z,16.30
2023-04-19T14:06:01.627Z,15.10
2023-04-19T14:08:41.059Z,15.30
2023-04-19T14:11:26.759Z,16.50
2023-04-19T14:14:31.620Z,19.30
2023-04-19T14:17:19.764Z,22.70
2023-04-19T14:20:15.718Z,17.80
2023-04-19T14:23:07.844Z,18.70
2023-04-19T14:26:28.819Z,17.40
2023-04-19T14:29:31.206Z,17.20
2023-04-19T14:32:26.530Z,18.60
2023-04-19T14:35:24.074Z,19.30
2023-04-19T14:38:01.510Z,19.20
2023-04-19T14:40:58.715Z,18.00
2023-04-19T14:44:59.620Z,19.20
2023-04-19T14:48:10.408Z,18.40
2023-04-19T14:51:07.709Z,19.70
2023-04-19T14:54:10.465Z,19.40
2023-04-19T14:57:16.515Z,17.10
2023-04-19T15:00:12.972Z,16.70
2023-04-19T15:07:32.364Z,20.50
2023-04-19T15:10:38.221Z,20.10
2023-04-19T15:16:40.465Z,18.90
2023-04-19T15:19:40.927Z,18.80
2023-04-19T15:22:39.604Z,18.10
2023-04-19T15:29:49.664Z,22.90
2023-04-19T15:32:36.353Z,17.00
2023-04-19T15:36:20.546Z,16.50
2023-04-19T15:39:27.275Z,18.10
2023-04-19T15:43:22.466Z,16.10
2023-04-19T15:46:40.277Z,20.70
2023-04-19T15:53:19.577Z,16.00
2023-04-19T16:00:11.890Z,18.90
2023-04-19T16:03:02.469Z,17.60
2023-04-19T16:09:24.456Z,16.70
2023-04-19T16:12:24.421Z,19.40
2023-04-19T16:17:57.275Z,17.80
2023-04-19T16:21:16.443Z,16.40
2023-04-19T16:28:37.616Z,17.70
2023-04-19T16:31:44.454Z,13.80
2023-04-19T16:34:43.013Z,15.50
2023-04-19T16:37:33.333Z,17.10
2023-04-19T16:48:45.187Z,18.80
2023-04-19T16:52:14.155Z,21.60
2023-04-19T16:55:58.380Z,20.90
2023-04-19T16:59:17.669Z,19.60
2023-04-19T17:02:09.730Z,22.00
2023-04-19T17:04:55.538Z,26.20
2023-04-19T17:08:03.720Z,25.80
2023-04-19T17:10:57.667Z,28.40
2023-04-19T17:13:56.651Z,25.80
2023-04-19T17:16:55.814Z,21.30
2023-04-19T17:19:57.431Z,21.90
2023-04-19T17:22:40.658Z,19.60
2023-04-19T17:25:17.366Z,23.90
2023-04-19T17:27:55.525Z,22.10
2023-04-19T17:30:47.354Z,22.70
2023-04-19T17:34:17.879Z,19.80
2023-04-19T17:37:46.286Z,21.50
2023-04-19T17:44:56.506Z,30.20
2023-04-19T17:48:47.168Z,26.10
2023-04-19T17:55:56.382Z,24.70
2023-04-19T17:59:05.990Z,22.80
2023-04-19T18:01:45.063Z,21.30
2023-04-19T18:04:23.594Z,22.30
2023-04-19T18:07:45.809Z,27.00
2023-04-19T18:10:48.084Z,30.70
2023-04-19T18:13:30.870Z,29.60
2023-04-19T18:16:19.019Z,25.30
2023-04-19T18:19:27.125Z,22.30
2023-04-19T18:21:58.814Z,23.60
2023-04-19T18:24:33.674Z,23.90
2023-04-19T18:27:10.049Z,23.50
2023-04-19T18:29:56.765Z,22.50
2023-04-19T18:32:48.201Z,24.00
2023-04-19T18:35:29.216Z,28.00
2023-04-19T18:38:06.166Z,32.40
2023-04-19T18:40:56.951Z,31.00
2023-04-19T18:44:24.826Z,35.20
2023-04-19T18:47:24.138Z,83.80
2023-04-19T18:50:12.229Z,137.40
2023-04-19T18:53:14.791Z,81.20
2023-04-19T18:56:03.667Z,56.50
2023-04-19T18:58:36.101Z,46.40
2023-04-19T19:01:15.392Z,29.80
2023-04-19T19:04:23.543Z,28.60
2023-04-19T19:07:33.379Z,23.90
2023-04-19T19:10:18.511Z,22.90
2023-04-19T19:12:55.773Z,27.70
2023-04-19T19:15:47.636Z,27.20
2023-04-19T19:18:16.490Z,25.80
2023-04-19T19:20:52.789Z,24.60
2023-04-19T19:23:35.517Z,25.70
2023-04-19T19:26:18.702Z,23.80
2023-04-19T19:29:16.065Z,23.50
2023-04-19T19:31:55.039Z,26.60
2023-04-19T19:34:30.631Z,26.70
2023-04-19T19:37:02.340Z,28.80
2023-04-19T19:39:38.206Z,28.60
2023-04-19T19:42:35.337Z,29.40
2023-04-19T19:45:20.539Z,28.60
2023-04-19T19:48:01.443Z,27.30
2023-04-19T19:51:11.990Z,25.80
2023-04-19T19:53:32.583Z,25.70
2023-04-19T19:56:10.830Z,24.00
2023-04-19T19:58:51.702Z,25.70
2023-04-19T20:01:31.887Z,28.10
2023-04-19T20:04:03.963Z,30.20
2023-04-19T20:09:36.359Z,29.30
2023-04-19T20:12:14.036Z,29.00
2023-04-19T20:15:05.303Z,28.60
2023-04-19T20:17:48.921Z,28.70
2023-04-19T20:20:34.152Z,29.30
2023-04-19T20:23:17.687Z,33.00
2023-04-19T20:26:02.840Z,36.70
2023-04-19T20:29:07.442Z,38.50
2023-04-19T20:31:53.205Z,45.70
2023-04-19T20:34:45.151Z,48.90
2023-04-19T20:37:18.191Z,49.70
2023-04-19T20:39:56.499Z,47.70
2023-04-19T20:42:33.412Z,48.10
2023-04-19T20:45:38.909Z,45.10
2023-04-19T20:48:16.188Z,46.10
2023-04-19T20:53:51.279Z,46.00
2023-04-19T20:56:33.721Z,47.30
2023-04-19T20:59:08.756Z,44.90
2023-04-19T21:01:55.333Z,44.10
2023-04-19T21:04:34.529Z,43.60
2023-04-19T21:07:06.651Z,47.00
2023-04-19T21:09:44.854Z,55.00
2023-04-19T21:12:19.573Z,52.30
2023-04-19T21:14:52.454Z,48.40
2023-04-19T21:17:24.756Z,45.20
2023-04-19T21:19:54.086Z,42.30
2023-04-19T21:22:23.157Z,35.80
2023-04-19T21:24:54.504Z,35.80
2023-04-19T21:27:30.039Z,34.10
2023-04-19T21:30:07.167Z,34.70
2023-04-19T21:32:41.052Z,34.70
2023-04-19T21:35:14.235Z,36.30
2023-04-19T21:37:45.677Z,35.80
2023-04-19T21:40:28.574Z,32.50
2023-04-19T21:43:16.056Z,32.70
2023-04-19T21:45:48.514Z,26.30
2023-04-19T21:48:30.267Z,24.30
2023-04-19T21:51:01.423Z,23.50
2023-04-19T21:53:33.818Z,23.10
2023-04-19T21:56:02.899Z,22.60
2023-04-19T22:01:11.282Z,22.90
2023-04-19T22:03:42.639Z,26.10
2023-04-19T22:06:24.266Z,26.50
2023-04-19T22:09:05.329Z,26.50
2023-04-19T22:11:42.344Z,25.00
2023-04-19T22:14:14.097Z,29.20
2023-04-19T22:16:49.314Z,26.20
2023-04-19T22:19:24.089Z,26.80
2023-04-19T22:22:07.631Z,25.30
2023-04-19T23:13:10.002Z,47.70
